createdAt,value
2022-08-11T00:01:53.170Z,45.94
2022-08-11T00:04:21.210Z,45.78
2022-08-11T00:06:48.963Z,47.54
2022-08-11T00:09:18.271Z,48.06
2022-08-11T00:11:49.011Z,48.18
2022-08-11T00:14:19.253Z,47.77
2022-08-11T00:16:54.954Z,48.25
2022-08-11T00:20:12.300Z,46.26
2022-08-11T00:22:10.933Z,46.77
2022-08-11T00:24:54.972Z,46.41
2022-08-11T00:27:33.263Z,46.29
2022-08-11T00:30:01.971Z,46.43
2022-08-11T00:32:29.713Z,46.13
2022-08-11T00:35:54.742Z,46.08
2022-08-11T00:37:46.287Z,46.34
2022-08-11T00:40:18.041Z,45.88
2022-08-11T00:42:48.066Z,46.40
2022-08-11T00:45:21.579Z,46.38
2022-08-11T00:47:56.649Z,46.81
2022-08-11T00:50:30.434Z,46.00
2022-08-11T00:53:09.181Z,46.21
2022-08-11T00:56:12.475Z,47.12
2022-08-11T00:59:06.373Z,45.81
2022-08-11T01:02:00.708Z,46.19
2022-08-11T01:04:57.962Z,45.84
2022-08-11T01:08:02.875Z,45.69
2022-08-11T01:10:43.341Z,45.63
2022-08-11T01:13:16.968Z,45.64
2022-08-11T01:16:00.222Z,45.57
2022-08-11T01:19:02.185Z,45.38
2022-08-11T01:21:59.628Z,45.52
2022-08-11T01:25:10.241Z,45.34
2022-08-11T01:28:02.723Z,45.50
2022-08-11T01:30:54.513Z,45.61
2022-08-11T01:33:52.286Z,45.71
2022-08-11T01:36:58.885Z,45.15
2022-08-11T01:40:08.233Z,45.01
2022-08-11T01:45:42.100Z,45.84
2022-08-11T01:48:12.990Z,45.55
2022-08-11T01:51:04.345Z,45.22
2022-08-11T01:53:35.897Z,45.29
2022-08-11T01:56:14.034Z,45.21
2022-08-11T01:58:44.546Z,45.21
2022-08-11T02:01:21.418Z,45.19
2022-08-11T02:03:56.106Z,44.99
2022-08-11T02:06:44.659Z,44.70
2022-08-11T02:09:17.926Z,44.90
2022-08-11T02:11:46.937Z,44.78
2022-08-11T02:14:20.835Z,45.16
2022-08-11T02:16:53.211Z,45.33
2022-08-11T02:19:41.847Z,45.28
2022-08-11T02:22:35.219Z,45.59
2022-08-11T02:25:04.800Z,45.28
2022-08-11T02:27:39.160Z,44.74
2022-08-11T02:30:08.443Z,45.72
2022-08-11T02:32:55.701Z,45.96
2022-08-11T02:35:27.525Z,45.42
2022-08-11T02:38:02.103Z,44.93
2022-08-11T02:40:34.421Z,44.80
2022-08-11T02:43:22.936Z,45.26
2022-08-11T02:45:55.348Z,46.11
2022-08-11T02:48:48.525Z,45.11
2022-08-11T02:51:22.365Z,45.00
2022-08-11T02:53:56.315Z,45.92
2022-08-11T02:56:32.281Z,45.04
2022-08-11T02:59:22.396Z,45.40
2022-08-11T03:01:51.181Z,45.10
2022-08-11T03:04:21.383Z,45.58
2022-08-11T03:06:50.449Z,45.32
2022-08-11T03:09:20.134Z,45.26
2022-08-11T03:12:11.334Z,45.13
2022-08-11T03:15:01.989Z,45.14
2022-08-11T03:17:31.161Z,45.06
2022-08-11T03:20:21.514Z,45.80
2022-08-11T03:22:52.597Z,45.01
2022-08-11T03:25:30.256Z,44.53
2022-08-11T03:28:03.524Z,45.10
2022-08-11T03:30:35.859Z,45.19
2022-08-11T03:33:34.677Z,45.55
2022-08-11T03:36:08.941Z,45.63
2022-08-11T03:38:44.985Z,45.91
2022-08-11T03:42:02.610Z,45.46
2022-08-11T03:44:39.245Z,45.16
2022-08-11T03:47:18.303Z,45.01
2022-08-11T03:49:58.719Z,44.97
2022-08-11T03:52:30.074Z,45.07
2022-08-11T03:55:02.658Z,45.22
2022-08-11T03:58:00.845Z,44.99
2022-08-11T04:00:46.489Z,44.86
2022-08-11T04:03:48.956Z,44.95
2022-08-11T04:06:37.085Z,45.14
2022-08-11T04:09:24.778Z,44.79
2022-08-11T04:12:45.712Z,44.74
2022-08-11T04:15:32.048Z,45.05
2022-08-11T04:18:08.006Z,45.33
2022-08-11T04:20:44.642Z,44.71
2022-08-11T04:24:36.728Z,45.48
2022-08-11T04:26:34.763Z,44.96
2022-08-11T04:29:09.492Z,45.19
2022-08-11T04:31:44.105Z,44.97
2022-08-11T04:34:36.766Z,45.02
2022-08-11T04:37:30.591Z,45.18
2022-08-11T04:40:29.880Z,44.80
2022-08-11T04:43:20.809Z,45.96
2022-08-11T04:46:06.953Z,46.04
2022-08-11T04:49:03.733Z,46.30
2022-08-11T04:52:05.177Z,45.69
2022-08-11T04:54:59.734Z,46.33
2022-08-11T04:57:53.582Z,47.01
2022-08-11T05:00:39.049Z,46.77
2022-08-11T05:03:33.048Z,46.26
2022-08-11T05:06:40.794Z,46.28
2022-08-11T05:09:18.654Z,46.20
2022-08-11T05:12:02.038Z,46.50
2022-08-11T05:14:52.277Z,45.03
2022-08-11T05:17:43.213Z,44.93
2022-08-11T05:20:29.569Z,45.03
2022-08-11T05:23:14.528Z,44.79
2022-08-11T05:26:44.640Z,44.77
2022-08-11T05:29:20.283Z,44.88
2022-08-11T05:32:09.753Z,44.64
2022-08-11T05:34:53.927Z,44.45
2022-08-11T05:37:27.202Z,44.49
2022-08-11T05:40:14.774Z,44.44
2022-08-11T05:43:02.344Z,44.35
2022-08-11T05:45:58.671Z,44.21
2022-08-11T05:48:52.373Z,44.52
2022-08-11T05:51:41.357Z,43.88
2022-08-11T05:54:40.130Z,44.09
2022-08-11T05:57:08.261Z,44.53
2022-08-11T05:59:35.712Z,43.74
2022-08-11T06:02:06.143Z,43.57
2022-08-11T06:04:33.764Z,43.23
2022-08-11T06:07:02.824Z,42.98
2022-08-11T06:09:32.825Z,43.02
2022-08-11T06:12:02.049Z,43.27
2022-08-11T06:14:29.666Z,42.79
2022-08-11T06:17:00.034Z,42.99
2022-08-11T06:19:40.015Z,42.86
2022-08-11T06:22:08.858Z,43.04
2022-08-11T06:24:38.756Z,42.97
2022-08-11T06:27:14.267Z,43.11
2022-08-11T06:29:54.740Z,43.65
2022-08-11T06:32:25.304Z,42.96
2022-08-11T06:34:59.803Z,43.00
2022-08-11T06:37:35.906Z,43.87
2022-08-11T06:40:06.493Z,43.77
2022-08-11T06:42:38.006Z,43.38
2022-08-11T06:45:10.512Z,43.14
2022-08-11T06:47:37.971Z,42.95
2022-08-11T06:50:30.041Z,42.82
2022-08-11T06:52:57.989Z,42.66
2022-08-11T06:55:58.190Z,42.24
2022-08-11T06:58:45.659Z,42.55
2022-08-11T07:01:14.483Z,42.37
2022-08-11T07:03:44.713Z,42.22
2022-08-11T07:06:25.656Z,42.09
2022-08-11T07:09:25.742Z,41.81
2022-08-11T07:12:34.104Z,41.58
2022-08-11T07:15:19.008Z,41.58
2022-08-11T07:17:49.253Z,41.67
2022-08-11T07:20:40.009Z,41.61
2022-08-11T07:23:26.471Z,41.56
2022-08-11T07:26:11.893Z,41.68
2022-08-11T07:28:56.175Z,41.68
2022-08-11T07:31:27.383Z,41.37
2022-08-11T07:34:05.212Z,41.55
2022-08-11T07:36:38.715Z,41.44
2022-08-11T07:39:08.444Z,41.42
2022-08-11T07:41:35.953Z,41.41
2022-08-11T07:44:09.658Z,40.80
2022-08-11T07:46:57.439Z,41.08
2022-08-11T07:49:42.875Z,41.51
2022-08-11T07:52:29.347Z,41.24
2022-08-11T07:54:59.699Z,41.16
2022-08-11T07:57:58.510Z,41.23
2022-08-11T08:00:54.381Z,40.93
2022-08-11T08:03:39.337Z,40.80
2022-08-11T08:06:39.654Z,40.92
2022-08-11T08:09:24.419Z,40.98
2022-08-11T08:12:10.948Z,41.00
2022-08-11T08:14:55.892Z,40.77
2022-08-11T08:17:41.232Z,41.04
2022-08-11T08:20:10.532Z,40.53
2022-08-11T08:22:39.507Z,40.75
2022-08-11T08:25:08.662Z,40.61
2022-08-11T08:27:38.483Z,40.70
2022-08-11T08:30:24.912Z,40.47
2022-08-11T08:32:52.526Z,40.75
2022-08-11T08:35:21.718Z,40.74
2022-08-11T08:37:51.187Z,40.47
2022-08-11T08:40:18.621Z,40.63
2022-08-11T08:42:51.420Z,40.49
2022-08-11T08:45:19.287Z,40.70
2022-08-11T08:47:52.958Z,40.87
2022-08-11T08:50:27.837Z,40.62
2022-08-11T08:52:59.336Z,40.95
2022-08-11T08:55:26.772Z,40.68
2022-08-11T08:57:55.628Z,40.69
2022-08-11T09:00:23.788Z,40.69
2022-08-11T09:02:51.452Z,40.74
2022-08-11T09:05:18.965Z,40.89
2022-08-11T09:07:47.961Z,40.68
2022-08-11T09:10:17.331Z,41.06
2022-08-11T09:12:44.786Z,40.79
2022-08-11T09:15:14.095Z,40.75
2022-08-11T09:17:44.651Z,40.60
2022-08-11T09:20:14.290Z,40.49
2022-08-11T09:24:02.068Z,40.48
2022-08-11T09:26:05.961Z,40.21
2022-08-11T09:28:34.349Z,39.47
2022-08-11T09:31:03.090Z,39.22
2022-08-11T09:33:30.548Z,39.60
2022-08-11T09:35:58.053Z,39.98
2022-08-11T09:38:49.273Z,39.79
2022-08-11T09:41:17.086Z,40.19
2022-08-11T09:44:04.345Z,40.08
2022-08-11T09:46:33.985Z,39.97
2022-08-11T09:49:02.409Z,39.50
2022-08-11T09:51:31.131Z,39.17
2022-08-11T09:54:02.882Z,39.50
2022-08-11T09:56:48.799Z,39.23
2022-08-11T09:59:18.724Z,39.07
2022-08-11T10:01:49.164Z,38.92
2022-08-11T10:04:17.319Z,39.31
2022-08-11T10:07:04.943Z,39.61
2022-08-11T10:09:37.205Z,39.27
2022-08-11T10:12:06.004Z,38.76
2022-08-11T10:14:51.103Z,39.89
2022-08-11T10:17:20.807Z,39.71
2022-08-11T10:20:05.301Z,39.53
2022-08-11T10:22:51.132Z,39.50
2022-08-11T10:25:36.457Z,39.58
2022-08-11T10:28:33.186Z,39.41
2022-08-11T10:31:12.487Z,39.34
2022-08-11T10:33:59.888Z,39.63
2022-08-11T10:36:27.663Z,39.68
2022-08-11T10:38:55.121Z,39.93
2022-08-11T10:41:41.989Z,39.29
2022-08-11T10:44:27.472Z,39.65
2022-08-11T10:47:12.586Z,39.42
2022-08-11T10:49:41.321Z,39.41
2022-08-11T10:52:26.146Z,39.27
2022-08-11T10:55:11.366Z,39.13
2022-08-11T10:58:04.987Z,39.35
2022-08-11T11:00:32.934Z,39.51
2022-08-11T11:03:23.302Z,39.44
2022-08-11T11:06:27.693Z,39.87
2022-08-11T11:08:58.894Z,39.75
2022-08-11T11:11:45.543Z,39.74
2022-08-11T11:14:31.748Z,39.53
2022-08-11T11:17:20.335Z,39.50
2022-08-11T11:19:47.779Z,39.44
2022-08-11T11:22:34.414Z,39.23
2022-08-11T11:25:04.989Z,39.36
2022-08-11T11:27:33.620Z,39.83
2022-08-11T11:30:04.855Z,39.69
2022-08-11T11:32:38.696Z,39.64
2022-08-11T11:35:18.105Z,39.96
2022-08-11T11:38:03.458Z,39.46
2022-08-11T11:40:32.744Z,39.17
2022-08-11T11:43:00.270Z,38.63
2022-08-11T11:45:27.815Z,38.61
2022-08-11T11:47:56.060Z,38.31
2022-08-11T11:50:24.879Z,37.82
2022-08-11T11:52:55.239Z,38.16
2022-08-11T11:55:23.696Z,37.75
2022-08-11T11:58:09.216Z,37.98
2022-08-11T12:01:02.010Z,37.79
2022-08-11T12:03:29.867Z,38.01
2022-08-11T12:05:57.348Z,37.15
2022-08-11T12:08:27.917Z,37.98
2022-08-11T12:11:16.933Z,38.19
2022-08-11T12:13:45.248Z,38.06
2022-08-11T12:16:34.337Z,39.21
2022-08-11T12:19:02.017Z,39.53
2022-08-11T12:21:29.813Z,38.13
2022-08-11T12:24:17.230Z,38.83
2022-08-11T12:27:15.614Z,38.50
2022-08-11T12:29:47.435Z,39.00
2022-08-11T12:32:17.653Z,38.84
2022-08-11T12:34:45.088Z,37.98
2022-08-11T12:37:13.831Z,38.11
2022-08-11T12:40:17.161Z,38.33
2022-08-11T12:43:21.073Z,37.53
2022-08-11T12:45:50.203Z,38.32
2022-08-11T12:49:00.543Z,38.29
2022-08-11T12:52:12.068Z,38.23
2022-08-11T12:54:32.392Z,37.73
2022-08-11T12:57:36.176Z,37.58
2022-08-11T13:00:23.639Z,37.28
2022-08-11T13:03:08.497Z,38.14
2022-08-11T13:05:44.647Z,38.01
2022-08-11T13:08:13.822Z,37.33
2022-08-11T13:10:58.942Z,37.29
2022-08-11T13:13:55.353Z,37.87
2022-08-11T13:16:15.231Z,37.29
2022-08-11T13:18:43.230Z,37.49
2022-08-11T13:21:10.989Z,38.25
2022-08-11T13:23:39.368Z,36.99
2022-08-11T13:26:08.001Z,37.54
2022-08-11T13:28:37.284Z,37.56
2022-08-11T13:31:14.998Z,37.11
2022-08-11T13:33:43.635Z,37.29
2022-08-11T13:36:11.204Z,37.77
2022-08-11T13:38:40.512Z,36.53
2022-08-11T13:41:27.966Z,36.67
2022-08-11T13:43:56.764Z,36.97
2022-08-11T13:46:24.464Z,36.78
2022-08-11T13:49:00.871Z,37.34
2022-08-11T13:51:34.058Z,37.24
2022-08-11T13:54:04.504Z,36.64
2022-08-11T13:56:32.414Z,36.92
2022-08-11T13:59:02.238Z,36.51
2022-08-11T14:02:19.632Z,36.60
2022-08-11T14:04:30.237Z,36.56
2022-08-11T14:07:00.739Z,37.31
2022-08-11T14:09:28.854Z,37.16
2022-08-11T14:12:21.232Z,36.14
2022-08-11T14:14:54.251Z,36.49
2022-08-11T14:17:48.455Z,36.91
2022-08-11T14:20:38.026Z,38.14
2022-08-11T14:22:57.800Z,37.02
2022-08-11T14:26:00.069Z,37.75
2022-08-11T14:28:31.984Z,37.33
2022-08-11T14:31:02.406Z,36.27
2022-08-11T14:33:58.473Z,37.09
2022-08-11T14:36:17.392Z,36.68
2022-08-11T14:38:44.888Z,36.85
2022-08-11T14:41:29.960Z,36.35
2022-08-11T14:44:15.231Z,38.19
2022-08-11T14:47:01.974Z,37.96
2022-08-11T14:49:29.620Z,38.43
2022-08-11T14:51:57.659Z,37.85
2022-08-11T14:54:43.268Z,39.51
2022-08-11T14:57:10.716Z,37.67
2022-08-11T14:59:38.256Z,37.32
2022-08-11T15:02:24.636Z,36.66
2022-08-11T15:04:52.122Z,37.00
2022-08-11T15:07:29.734Z,37.83
2022-08-11T15:10:14.056Z,37.04
2022-08-11T15:12:42.821Z,37.25
2022-08-11T15:15:28.217Z,36.15
2022-08-11T15:17:59.967Z,37.02
2022-08-11T15:20:45.995Z,35.92
2022-08-11T15:23:30.875Z,36.02
2022-08-11T15:25:59.283Z,35.41
2022-08-11T15:28:45.676Z,35.50
2022-08-11T15:31:31.202Z,36.02
2022-08-11T15:34:20.736Z,35.97
2022-08-11T15:37:06.153Z,36.83
2022-08-11T15:39:36.215Z,37.03
2022-08-11T15:42:22.995Z,37.03
2022-08-11T15:45:10.429Z,37.54
2022-08-11T15:47:41.730Z,36.94
2022-08-11T15:50:13.815Z,36.67
2022-08-11T15:52:47.439Z,36.64
2022-08-11T15:55:14.870Z,36.69
2022-08-11T15:57:59.958Z,35.82
2022-08-11T16:00:44.841Z,36.55
2022-08-11T16:04:06.029Z,36.96
2022-08-11T16:06:18.934Z,36.47
2022-08-11T16:08:49.919Z,36.25
2022-08-11T16:11:18.640Z,35.95
2022-08-11T16:14:04.006Z,36.43
2022-08-11T16:16:33.773Z,37.10
2022-08-11T16:19:01.233Z,37.12
2022-08-11T16:21:35.115Z,36.99
2022-08-11T16:24:05.749Z,36.22
2022-08-11T16:27:11.607Z,36.40
2022-08-11T16:29:21.524Z,36.63
2022-08-11T16:32:08.958Z,36.43
2022-08-11T16:34:54.122Z,36.74
2022-08-11T16:37:40.924Z,36.74
2022-08-11T16:40:10.238Z,37.22
2022-08-11T16:43:09.018Z,37.22
2022-08-11T16:45:56.587Z,36.97
2022-08-11T16:48:36.352Z,36.47
2022-08-11T16:51:05.542Z,36.77
2022-08-11T16:54:04.682Z,35.73
2022-08-11T16:56:22.828Z,36.49
2022-08-11T16:59:10.265Z,35.43
2022-08-11T17:01:37.733Z,36.16
2022-08-11T17:04:25.964Z,36.65
2022-08-11T17:07:40.376Z,35.28
2022-08-11T17:10:39.317Z,36.57
2022-08-11T17:13:13.166Z,36.08
2022-08-11T17:16:00.908Z,36.33
2022-08-11T17:18:44.044Z,36.38
2022-08-11T17:21:13.676Z,37.08
2022-08-11T17:23:50.380Z,37.46
2022-08-11T17:26:22.350Z,38.22
2022-08-11T17:28:56.222Z,38.85
2022-08-11T17:31:41.655Z,39.23
2022-08-11T17:34:33.997Z,38.73
2022-08-11T17:37:01.468Z,38.57
2022-08-11T17:39:30.566Z,38.43
2022-08-11T17:42:17.374Z,38.47
2022-08-11T17:45:02.742Z,38.62
2022-08-11T17:47:47.606Z,38.78
2022-08-11T17:50:17.725Z,38.81
2022-08-11T17:53:03.461Z,38.77
2022-08-11T17:55:52.343Z,38.81
2022-08-11T17:58:39.906Z,38.95
2022-08-11T18:01:08.927Z,38.92
2022-08-11T18:03:39.395Z,38.83
2022-08-11T18:06:12.702Z,38.59
2022-08-11T18:08:59.941Z,38.50
2022-08-11T18:12:10.721Z,38.58
2022-08-11T18:14:53.021Z,38.68
2022-08-11T18:17:38.558Z,38.73
2022-08-11T18:20:24.730Z,39.08
2022-08-11T18:23:10.247Z,38.62
2022-08-11T18:25:58.191Z,38.86
2022-08-11T18:28:44.994Z,38.69
2022-08-11T18:31:33.479Z,38.99
2022-08-11T18:34:20.388Z,38.80
2022-08-11T18:37:07.721Z,38.89
2022-08-11T18:39:56.434Z,38.83
2022-08-11T18:42:42.010Z,39.04
2022-08-11T18:45:29.285Z,38.98
2022-08-11T18:48:19.793Z,39.11
2022-08-11T18:51:31.336Z,39.40
2022-08-11T18:54:11.958Z,39.14
2022-08-11T18:56:57.269Z,39.59
2022-08-11T18:59:44.099Z,41.35
2022-08-11T19:02:29.428Z,41.68
2022-08-11T19:05:16.111Z,42.79
2022-08-11T19:08:01.499Z,42.78
2022-08-11T19:10:46.364Z,42.72
2022-08-11T19:13:31.635Z,42.93
2022-08-11T19:16:16.573Z,43.33
2022-08-11T19:19:02.006Z,43.91
2022-08-11T19:21:48.672Z,43.78
2022-08-11T19:24:33.982Z,43.82
2022-08-11T19:27:20.226Z,43.34
2022-08-11T19:30:13.870Z,42.89
2022-08-11T19:32:59.380Z,42.60
2022-08-11T19:35:44.721Z,42.45
2022-08-11T19:38:31.385Z,42.22
2022-08-11T19:41:16.893Z,42.34
2022-08-11T19:44:06.850Z,42.20
2022-08-11T19:46:52.306Z,42.08
2022-08-11T19:49:37.169Z,42.33
2022-08-11T19:52:23.618Z,42.05
2022-08-11T19:55:10.116Z,42.07
2022-08-11T19:57:55.579Z,41.99
2022-08-11T20:00:40.913Z,41.74
2022-08-11T20:03:27.244Z,41.61
2022-08-11T20:06:12.581Z,41.88
2022-08-11T20:08:59.917Z,40.18
2022-08-11T20:11:46.512Z,40.02
2022-08-11T20:14:31.955Z,40.09
2022-08-11T20:17:17.069Z,40.29
2022-08-11T20:20:02.652Z,39.87
2022-08-11T20:22:48.713Z,40.58
2022-08-11T20:25:33.923Z,39.93
2022-08-11T20:28:20.414Z,39.83
2022-08-11T20:31:05.775Z,39.76
2022-08-11T20:33:51.127Z,39.80
2022-08-11T20:36:36.433Z,39.49
2022-08-11T20:39:21.956Z,39.33
2022-08-11T20:42:07.175Z,37.96
2022-08-11T20:44:53.854Z,38.24
2022-08-11T20:47:59.460Z,39.52
2022-08-11T20:50:45.640Z,39.45
2022-08-11T20:53:31.399Z,39.81
2022-08-11T20:56:21.877Z,39.34
2022-08-11T20:59:17.685Z,39.73
2022-08-11T21:02:10.102Z,39.08
2022-08-11T21:04:56.387Z,39.53
2022-08-11T21:07:42.083Z,39.52
2022-08-11T21:10:27.255Z,39.30
2022-08-11T21:13:25.619Z,39.56
2022-08-11T21:16:12.188Z,39.99
2022-08-11T21:19:11.791Z,39.43
2022-08-11T21:21:57.058Z,39.58
2022-08-11T21:24:47.095Z,39.67
2022-08-11T21:27:33.844Z,39.61
2022-08-11T21:30:18.696Z,39.82
2022-08-11T21:33:04.081Z,39.49
2022-08-11T21:35:50.799Z,39.72
2022-08-11T21:38:36.150Z,39.97
2022-08-11T21:41:21.038Z,40.10
2022-08-11T21:44:06.184Z,39.98
2022-08-11T21:46:53.561Z,40.27
2022-08-11T21:49:39.068Z,39.98
2022-08-11T21:52:25.792Z,40.29
2022-08-11T21:55:10.717Z,40.85
2022-08-11T21:57:56.109Z,40.83
2022-08-11T22:00:41.326Z,41.01
2022-08-11T22:03:26.281Z,40.94
2022-08-11T22:06:11.736Z,40.93
2022-08-11T22:08:58.274Z,40.71
2022-08-11T22:11:43.585Z,40.69
2022-08-11T22:14:28.485Z,40.93
2022-08-11T22:17:13.834Z,41.77
2022-08-11T22:20:00.602Z,42.46
2022-08-11T22:22:52.398Z,41.97
2022-08-11T22:25:46.465Z,42.36
2022-08-11T22:28:37.577Z,42.50
2022-08-11T22:31:24.008Z,42.46
2022-08-11T22:34:10.121Z,42.90
2022-08-11T22:36:55.076Z,42.98
2022-08-11T22:39:40.577Z,42.40
2022-08-11T22:42:33.676Z,42.82
2022-08-11T22:45:19.284Z,42.34
2022-08-11T22:48:04.201Z,41.88
2022-08-11T22:50:49.533Z,42.63
2022-08-11T22:53:57.831Z,41.99
2022-08-11T22:56:39.587Z,42.33
2022-08-11T22:59:26.262Z,42.25
2022-08-11T23:02:11.657Z,42.02
2022-08-11T23:04:56.846Z,41.60
2022-08-11T23:07:50.925Z,42.22
2022-08-11T23:10:37.138Z,42.02
2022-08-11T23:13:22.590Z,42.33
2022-08-11T23:16:09.132Z,42.07
2022-08-11T23:18:54.557Z,42.24
2022-08-11T23:21:39.794Z,42.13
2022-08-11T23:24:25.572Z,41.84
2022-08-11T23:27:10.319Z,42.02
2022-08-11T23:29:55.777Z,42.05
2022-08-11T23:32:42.281Z,43.71
2022-08-11T23:35:38.163Z,45.89
2022-08-11T23:38:24.777Z,46.27
2022-08-11T23:41:10.272Z,45.31
2022-08-11T23:43:55.215Z,44.43
2022-08-11T23:46:40.584Z,45.31
2022-08-11T23:49:27.298Z,46.27
2022-08-11T23:52:12.637Z,45.48
2022-08-11T23:54:57.399Z,45.31
2022-08-11T23:57:48.954Z,45.29
